Imperial Beach, CA (91933)

9:20 AM PST on February 13, 2016 (GMT -0800)
KCAIMPER2 | | Change Station
CLOSE
Current Station
Personal Weather Station
Location: Imperial Beach, CA
Elevation: 14 ft
Nearby Weather Stations
Active Advisory: High Surf Advisory Active Notice: Record Report

Elev 14 ft 32.58 °N, 117.13 °W | Updated 11 minutes ago

Haze
Haze
56.7 °F
Feels Like 56.7 °F
N
2.0
Wind Variable Wind from NE
Gusts 4.0 mph

Today
High -- | Low -- °F
--% Chance of Precip.
Yesterday
High -- | Low -- °F
Precip. -- in
Pressure 30.11 in
Visibility 3.0 miles
Clouds Clear
Dew Point 54 °F
Humidity 90%
Rainfall 0.00 in
Snow Depth Not available.
6:33 AM 5:32 PM
Waxing Crescent, 32% visible
SPECI KNRS 131706Z AUTO 05004KT 3SM HZ CLR 16/12 A3011 RMK AO2 T01560117 $
Pressure 30.11 in
Visibility 3.0 miles
Clouds Clear
Dew Point 54 °F
Humidity 90%
Rainfall 0.00 in
Snow Depth Not available.
6:33 AM 5:32 PM
Waxing Crescent, 32% visible
SPECI KNRS 131706Z AUTO 05004KT 3SM HZ CLR 16/12 A3011 RMK AO2 T01560117 $

10-Day Weather Forecast

Almanac

Astronomy

Feb. 13, 2016 Rise Set
Actual Time
Civil Twilight
Nautical Twilight
Astronomical Twilight
Moon
Length of Visible Light
Length of Day
Tomorrow will be .
, % of the Moon is Illuminated

Today's Extremes

State Highs State Lows

Community

WunderPhotos

Upload Photos

1,892,615 photos uploaded!

WunderBlog® & News

Nearby

Air Quality

  Air Quality AQ Index Pollutant
Not available.

Snow Depth

Station Depth Elevation

Earthquake Activity

City Distance Mag. Time & Date
Minimum magnitude displayed is 2.5.

Coastal Water Temperatures

Place Temperature

Stations

Nearby Weather Stations

Station Location Temp. Windchill Dew Point Humidity Wind Precip. Elev Updated Type
                   

Watches & Warnings

High Surf Advisory
Issued: 5:31 AM PST Feb. 13, 2016 – National Weather Service

... High surf advisory remains in effect until 8 PM PST Sunday...

* swell... 8 to 9 ft at 18 seconds from the west-northwest around
290 degrees.

* Surf... 4 to 7 ft... with local sets to 8 ft north of Newport
Beach and sets to 9 feet south of del Mar. Surf slowly
lowering Sunday afternoon.

* Impacts... high surf and strong rip currents will create
dangerous swimming conditions. Minor beach erosion is also
possible. Larger waves may over-top jetties or sea walls at
times.

Precautionary/preparedness actions...

A high surf advisory means that high surf will affect beaches in
the advisory area... producing rip currents and localized beach
erosion.